map of EGDR home
EGDR - Airport
Location
City:  Culdrose, Cornwall, England, United Kingdom
ICAO:EGDR

Details
Type:Airport (Aerodrome, Airfield)
Use:Military, International (customs port of entry)
Latitude:5005'10"N (50.086092)
Longitude:515'21"W (-5.255710)
Datum:WGS 1984
Elevation:267 ft (81 m)
Variation:2.10W (WMM2015 magnetic declination)
0.15 annual change
Runways:3
Longest:6006 × 151 ft (1831 × 46 m), paved

Time
Time Zone:UTC+0 (DST+1)
Local Time:

Weather
METAR:EGDR 201050Z 24010G21KT 9999 FEW014 SCT018 BKN050 13/10 Q1019 WHT TEMPO FEW020 BLU

Related Locations
Nearby:
Farthest:NZBA: 12082 mi / 19444 km
Balclutha, OTA, NZ

Find:

   beyond  
but within

Other Information
Maps:
NOTAMs:
Links:
Sources:

  
flag of United Kingdom
flag of England
flag of Cornwall
  

Sectional Chart

Flight Planning
at skyvector.com

Satellite Image

Google Maps Satellite view

 

Copyright © 2004-2017 Karl L. Swartz. All rights reserved.
The Great Circle Mapper name and logo are trademarks of the Great Circle Mapper.
All other trademarks mentioned herein belong to their respective owners.
Please see credits for attibutions and further copyright information.

  Follow gcmap on Facebook Follow gcmap on Twitter Follow gcmap on Google+ GCmap on LinkedIn

hCard Microformat

Geo Microformat